createdAt,value
2019-06-08T00:00:06.331Z,1005.14
2019-06-08T00:01:06.359Z,1005.11
2019-06-08T00:02:06.316Z,1005.15
2019-06-08T00:03:06.303Z,1005.22
2019-06-08T00:04:06.301Z,1005.27
2019-06-08T00:05:06.275Z,1005.35
2019-06-08T00:06:06.272Z,1005.32
2019-06-08T00:07:06.257Z,1005.23
2019-06-08T00:08:06.247Z,1005.20
2019-06-08T00:09:11.870Z,1005.18
2019-06-08T00:10:06.221Z,1005.20
2019-06-08T00:11:06.214Z,1005.22
2019-06-08T00:12:06.208Z,1005.30
2019-06-08T00:13:06.190Z,1005.28
2019-06-08T00:14:06.192Z,1005.31
2019-06-08T00:15:06.174Z,1005.35
2019-06-08T00:16:06.156Z,1005.45
2019-06-08T00:17:06.145Z,1005.54
2019-06-08T00:18:06.130Z,1005.45
2019-06-08T00:19:06.138Z,1005.39
2019-06-08T00:20:11.169Z,1005.25
2019-06-08T00:21:06.099Z,1005.23
2019-06-08T00:22:06.086Z,1005.28
2019-06-08T00:23:06.076Z,1005.32
2019-06-08T00:24:06.084Z,1005.38
2019-06-08T00:25:06.062Z,1005.40
2019-06-08T00:26:06.043Z,1005.36
2019-06-08T00:27:06.032Z,1005.33
2019-06-08T00:28:06.020Z,1005.21
2019-06-08T00:29:06.024Z,1005.14
2019-06-08T00:30:06.001Z,1005.23
2019-06-08T00:31:11.010Z,1005.24
2019-06-08T00:32:05.974Z,1005.32
2019-06-08T00:33:05.963Z,1005.38
2019-06-08T00:34:05.949Z,1005.39
2019-06-08T00:35:05.953Z,1005.45
2019-06-08T00:36:05.935Z,1005.50
2019-06-08T00:37:05.917Z,1005.43
2019-06-08T00:38:05.904Z,1005.40
2019-06-08T00:39:05.891Z,1005.52
2019-06-08T00:40:05.891Z,1005.58
2019-06-08T00:41:05.880Z,1005.70
2019-06-08T00:42:10.888Z,1005.74
2019-06-08T00:43:05.852Z,1005.70
2019-06-08T00:44:05.840Z,1005.63
2019-06-08T00:45:05.835Z,1005.63
2019-06-08T00:46:05.814Z,1005.57
2019-06-08T00:47:05.813Z,1005.57
2019-06-08T00:48:05.817Z,1005.61
2019-06-08T00:49:05.798Z,1005.63
2019-06-08T00:50:05.783Z,1005.71
2019-06-08T00:51:05.760Z,1005.69
2019-06-08T00:52:05.748Z,1005.68
2019-06-08T00:53:10.766Z,1005.54
2019-06-08T00:54:05.727Z,1005.57
2019-06-08T00:55:05.739Z,1005.63
2019-06-08T00:56:05.704Z,1005.70
2019-06-08T00:57:05.689Z,1005.82
2019-06-08T00:58:05.684Z,1005.84
2019-06-08T00:59:05.668Z,1005.94
2019-06-08T01:00:10.656Z,1005.96
2019-06-08T01:01:06.660Z,1005.90
2019-06-08T01:02:05.632Z,1005.99
2019-06-08T01:03:05.632Z,1006.01
2019-06-08T01:04:10.641Z,1005.97
2019-06-08T01:05:05.618Z,1005.95
2019-06-08T01:06:05.590Z,1005.93
2019-06-08T01:07:05.590Z,1005.92
2019-06-08T01:08:05.597Z,1005.99
2019-06-08T01:09:05.557Z,1005.98
2019-06-08T01:10:05.555Z,1005.91
2019-06-08T01:11:05.528Z,1006.04
2019-06-08T01:12:05.517Z,1006.02
2019-06-08T01:13:05.509Z,1005.97
2019-06-08T01:14:05.501Z,1005.99
2019-06-08T01:15:10.532Z,1005.96
2019-06-08T01:16:05.473Z,1005.97
2019-06-08T01:17:05.462Z,1006.05
2019-06-08T01:18:05.460Z,1006.16
2019-06-08T01:19:05.446Z,1006.21
2019-06-08T01:20:05.435Z,1006.16
2019-06-08T01:21:05.445Z,1006.15
2019-06-08T01:22:05.405Z,1006.16
2019-06-08T01:23:05.395Z,1006.23
2019-06-08T01:24:05.447Z,1006.13
2019-06-08T01:25:05.372Z,1006.13
2019-06-08T01:26:10.403Z,1006.20
2019-06-08T01:27:05.379Z,1006.15
2019-06-08T01:28:05.338Z,1006.12
2019-06-08T01:29:05.326Z,1006.14
2019-06-08T01:30:05.320Z,1006.25
2019-06-08T01:31:05.311Z,1006.28
2019-06-08T01:32:05.296Z,1006.32
2019-06-08T01:33:05.283Z,1006.23
2019-06-08T01:34:05.274Z,1006.27
2019-06-08T01:35:05.256Z,1006.29
2019-06-08T01:36:05.264Z,1006.32
2019-06-08T01:37:10.258Z,1006.32
2019-06-08T01:38:05.235Z,1006.31
2019-06-08T01:39:05.213Z,1006.26
2019-06-08T01:40:05.201Z,1006.29
2019-06-08T01:41:05.201Z,1006.38
2019-06-08T01:42:05.179Z,1006.33
2019-06-08T01:43:05.173Z,1006.28
2019-06-08T01:44:05.156Z,1006.42
2019-06-08T01:45:05.141Z,1006.65
2019-06-08T01:46:05.146Z,1006.67
2019-06-08T01:47:05.121Z,1006.62
2019-06-08T01:48:19.873Z,1006.54
2019-06-08T01:49:06.103Z,1006.64
2019-06-08T01:50:05.087Z,1006.72
2019-06-08T01:51:05.088Z,1006.73
2019-06-08T01:52:05.065Z,1006.67
2019-06-08T01:53:05.058Z,1006.70
2019-06-08T01:54:05.041Z,1006.78
2019-06-08T01:55:05.055Z,1006.72
2019-06-08T01:56:05.029Z,1006.69
2019-06-08T01:57:05.012Z,1006.73
2019-06-08T01:58:04.998Z,1006.69
2019-06-08T01:59:10.008Z,1006.63
2019-06-08T02:00:29.363Z,1006.53
2019-06-08T02:01:05.983Z,1006.53
2019-06-08T02:02:04.965Z,1006.39
2019-06-08T02:03:04.943Z,1006.30
2019-06-08T02:04:04.983Z,1006.31
2019-06-08T02:05:04.927Z,1006.36
2019-06-08T02:06:04.915Z,1006.38
2019-06-08T02:07:04.912Z,1006.38
2019-06-08T02:08:04.890Z,1006.38
2019-06-08T02:09:04.871Z,1006.46
2019-06-08T02:10:09.893Z,1006.54
2019-06-08T02:11:04.855Z,1006.64
2019-06-08T02:12:04.850Z,1006.69
2019-06-08T02:13:08.415Z,1006.69
2019-06-08T02:14:04.829Z,1006.75
2019-06-08T02:15:04.807Z,1006.82
2019-06-08T02:16:04.821Z,1006.81
2019-06-08T02:17:04.794Z,1006.79
2019-06-08T02:18:04.765Z,1006.74
2019-06-08T02:19:04.758Z,1006.65
2019-06-08T02:20:04.750Z,1006.62
2019-06-08T02:21:09.761Z,1006.71
2019-06-08T02:22:04.745Z,1006.73
2019-06-08T02:23:04.722Z,1006.66
2019-06-08T02:24:04.699Z,1006.70
2019-06-08T02:25:04.693Z,1006.71
2019-06-08T02:26:04.682Z,1006.72
2019-06-08T02:27:04.691Z,1006.85
2019-06-08T02:28:05.554Z,1006.82
2019-06-08T02:29:04.662Z,1006.90
2019-06-08T02:30:04.636Z,1006.84
2019-06-08T02:31:04.648Z,1006.81
2019-06-08T02:32:09.643Z,1006.90
2019-06-08T02:33:04.599Z,1006.87
2019-06-08T02:34:04.608Z,1006.85
2019-06-08T02:35:04.615Z,1006.81
2019-06-08T02:36:04.571Z,1006.78
2019-06-08T02:37:04.576Z,1006.88
2019-06-08T02:38:04.544Z,1006.83
2019-06-08T02:39:04.557Z,1006.96
2019-06-08T02:40:04.526Z,1006.98
2019-06-08T02:41:04.513Z,1006.91
2019-06-08T02:42:04.524Z,1006.89
2019-06-08T02:43:09.517Z,1006.85
2019-06-08T02:44:04.477Z,1006.90
2019-06-08T02:45:04.466Z,1006.86
2019-06-08T02:46:04.454Z,1006.84
2019-06-08T02:47:04.456Z,1006.95
2019-06-08T02:48:04.480Z,1006.93
2019-06-08T02:49:04.994Z,1006.89
2019-06-08T02:50:04.410Z,1006.94
2019-06-08T02:51:04.409Z,1006.85
2019-06-08T02:52:04.406Z,1006.90
2019-06-08T02:53:04.377Z,1006.92
2019-06-08T02:54:09.390Z,1007.05
2019-06-08T02:55:04.369Z,1007.02
2019-06-08T02:56:04.370Z,1007.00
2019-06-08T02:57:04.365Z,1007.04
2019-06-08T02:58:04.330Z,1006.99
2019-06-08T02:59:04.322Z,1006.92
2019-06-08T03:00:04.305Z,1007.01
2019-06-08T03:01:04.295Z,1006.93
2019-06-08T03:02:04.276Z,1007.04
2019-06-08T03:03:04.290Z,1007.12
2019-06-08T03:04:04.254Z,1007.11
2019-06-08T03:05:09.273Z,1007.20
2019-06-08T03:06:04.231Z,1007.13
2019-06-08T03:07:04.220Z,1007.17
2019-06-08T03:08:04.227Z,1007.22
2019-06-08T03:09:04.198Z,1007.24
2019-06-08T03:10:04.226Z,1007.22
2019-06-08T03:11:04.177Z,1007.31
2019-06-08T03:12:04.180Z,1007.23
2019-06-08T03:13:04.166Z,1007.23
2019-06-08T03:14:04.144Z,1007.25
2019-06-08T03:15:04.186Z,1007.13
2019-06-08T03:16:09.158Z,1007.16
2019-06-08T03:17:04.131Z,1007.22
2019-06-08T03:18:04.109Z,1007.26
2019-06-08T03:19:20.041Z,1007.16
2019-06-08T03:20:05.177Z,1007.23
2019-06-08T03:21:04.069Z,1007.24
2019-06-08T03:22:04.057Z,1007.24
2019-06-08T03:23:04.069Z,1007.28
2019-06-08T03:24:04.036Z,1007.25
2019-06-08T03:25:04.064Z,1007.25
2019-06-08T03:26:04.018Z,1007.25
2019-06-08T03:27:09.021Z,1007.14
2019-06-08T03:28:03.997Z,1007.22
2019-06-08T03:29:03.996Z,1007.24
2019-06-08T03:30:16.149Z,1007.30
2019-06-08T03:31:04.987Z,1007.25
2019-06-08T03:32:03.963Z,1007.35
2019-06-08T03:33:04.020Z,1007.47
2019-06-08T03:34:03.962Z,1007.38
2019-06-08T03:35:03.915Z,1007.45
2019-06-08T03:36:03.959Z,1007.61
2019-06-08T03:37:03.892Z,1007.52
2019-06-08T03:38:08.909Z,1007.57
2019-06-08T03:39:03.865Z,1007.55
2019-06-08T03:40:03.858Z,1007.58
2019-06-08T03:41:03.855Z,1007.51
2019-06-08T03:42:03.838Z,1007.68
2019-06-08T03:43:03.838Z,1007.63
2019-06-08T03:44:03.822Z,1007.72
2019-06-08T03:45:03.799Z,1007.78
2019-06-08T03:46:03.787Z,1007.65
2019-06-08T03:47:03.782Z,1007.59
2019-06-08T03:48:03.766Z,1007.63
2019-06-08T03:49:08.786Z,1007.66
2019-06-08T03:50:03.741Z,1007.60
2019-06-08T03:51:03.744Z,1007.63
2019-06-08T03:52:03.734Z,1007.71
2019-06-08T03:53:03.710Z,1007.74
2019-06-08T03:54:03.710Z,1007.73
2019-06-08T03:55:03.688Z,1007.65
2019-06-08T03:56:03.674Z,1007.75
2019-06-08T03:57:03.664Z,1007.74
2019-06-08T03:58:03.657Z,1007.77
2019-06-08T03:59:03.652Z,1007.76
2019-06-08T04:00:13.496Z,1007.76
2019-06-08T04:01:04.621Z,1007.71
2019-06-08T04:02:03.613Z,1007.75
2019-06-08T04:03:03.604Z,1007.68
2019-06-08T04:04:03.604Z,1007.73
2019-06-08T04:05:03.578Z,1007.83
2019-06-08T04:06:03.575Z,1007.77
2019-06-08T04:07:03.550Z,1007.86
2019-06-08T04:08:03.544Z,1007.82
2019-06-08T04:09:03.548Z,1007.92
2019-06-08T04:10:03.530Z,1007.82
2019-06-08T04:11:08.530Z,1007.89
2019-06-08T04:12:03.498Z,1007.90
2019-06-08T04:13:03.490Z,1007.90
2019-06-08T04:14:03.491Z,1007.94
2019-06-08T04:15:03.471Z,1007.96
2019-06-08T04:16:03.455Z,1007.97
2019-06-08T04:17:03.463Z,1008.00
2019-06-08T04:18:03.428Z,1008.03
2019-06-08T04:19:03.495Z,1008.02
2019-06-08T04:20:11.033Z,1008.09
2019-06-08T04:21:04.455Z,1008.10
2019-06-08T04:22:08.411Z,1008.00
2019-06-08T04:23:03.426Z,1007.97
2019-06-08T04:24:03.391Z,1007.96
2019-06-08T04:25:03.367Z,1007.92
2019-06-08T04:26:03.372Z,1008.03
2019-06-08T04:27:03.335Z,1008.01
2019-06-08T04:28:03.317Z,1008.01
2019-06-08T04:29:03.449Z,1007.96
2019-06-08T04:30:03.370Z,1008.02
2019-06-08T04:31:03.332Z,1007.98
2019-06-08T04:32:03.279Z,1008.06
2019-06-08T04:33:08.291Z,1008.03
2019-06-08T04:34:03.263Z,1008.08
2019-06-08T04:35:03.239Z,1008.04
2019-06-08T04:36:03.233Z,1008.08
2019-06-08T04:37:03.247Z,1008.17
2019-06-08T04:38:03.209Z,1008.17
2019-06-08T04:39:03.206Z,1008.12
2019-06-08T04:40:03.187Z,1008.19
2019-06-08T04:41:03.185Z,1008.20
2019-06-08T04:42:03.162Z,1008.17
2019-06-08T04:43:03.153Z,1008.26
2019-06-08T04:44:08.183Z,1008.29
2019-06-08T04:45:03.132Z,1008.29
2019-06-08T04:46:03.118Z,1008.40
2019-06-08T04:47:03.112Z,1008.45
2019-06-08T04:48:03.096Z,1008.44
2019-06-08T04:49:03.088Z,1008.47
2019-06-08T04:50:20.820Z,1008.49
2019-06-08T04:51:04.060Z,1008.54
2019-06-08T04:52:03.050Z,1008.59
2019-06-08T04:53:03.052Z,1008.66
2019-06-08T04:54:03.047Z,1008.63
2019-06-08T04:55:08.053Z,1008.66
2019-06-08T04:56:03.047Z,1008.65
2019-06-08T04:57:02.998Z,1008.74
2019-06-08T04:58:02.989Z,1008.73
2019-06-08T04:59:02.978Z,1008.79
2019-06-08T05:00:12.223Z,1008.76
2019-06-08T05:01:03.988Z,1008.70
2019-06-08T05:02:02.979Z,1008.86
2019-06-08T05:03:02.942Z,1008.74
2019-06-08T05:04:02.916Z,1008.80
2019-06-08T05:05:02.960Z,1008.83
2019-06-08T05:06:07.915Z,1008.90
2019-06-08T05:07:02.887Z,1008.86
2019-06-08T05:08:02.876Z,1008.90
2019-06-08T05:09:02.864Z,1008.94
2019-06-08T05:10:02.863Z,1008.85
2019-06-08T05:11:02.843Z,1008.89
2019-06-08T05:12:02.829Z,1008.97
2019-06-08T05:13:02.858Z,1008.96
2019-06-08T05:14:02.820Z,1008.96
2019-06-08T05:15:02.877Z,1009.04
2019-06-08T05:16:02.785Z,1008.95
2019-06-08T05:17:07.829Z,1009.06
2019-06-08T05:18:02.788Z,1009.10
2019-06-08T05:19:02.759Z,1009.05
2019-06-08T05:20:03.718Z,1009.09
2019-06-08T05:21:02.853Z,1009.11
2019-06-08T05:22:02.805Z,1009.12
2019-06-08T05:23:02.830Z,1009.14
2019-06-08T05:24:02.712Z,1009.15
2019-06-08T05:25:02.717Z,1009.26
2019-06-08T05:26:02.745Z,1009.22
2019-06-08T05:27:02.715Z,1009.34
2019-06-08T05:28:07.689Z,1009.22
2019-06-08T05:29:02.647Z,1009.29
2019-06-08T05:30:08.350Z,1009.34
2019-06-08T05:31:05.629Z,1009.42
2019-06-08T05:32:02.656Z,1009.45
2019-06-08T05:33:02.656Z,1009.37
2019-06-08T05:34:02.582Z,1009.42
2019-06-08T05:35:02.570Z,1009.42
2019-06-08T05:36:02.570Z,1009.42
2019-06-08T05:37:02.547Z,1009.42
2019-06-08T05:38:02.541Z,1009.47
2019-06-08T05:39:07.554Z,1009.38
2019-06-08T05:40:02.512Z,1009.43
2019-06-08T05:41:02.523Z,1009.44
2019-06-08T05:42:02.497Z,1009.44
2019-06-08T05:43:02.479Z,1009.36
2019-06-08T05:44:02.497Z,1009.41
2019-06-08T05:45:02.499Z,1009.46
2019-06-08T05:46:02.455Z,1009.45
2019-06-08T05:47:02.444Z,1009.45
2019-06-08T05:48:02.428Z,1009.44
2019-06-08T05:49:02.415Z,1009.43
2019-06-08T05:50:07.425Z,1009.41
2019-06-08T05:51:04.099Z,1009.44
2019-06-08T05:52:02.384Z,1009.41
2019-06-08T05:53:02.370Z,1009.45
2019-06-08T05:54:03.183Z,1009.44
2019-06-08T05:55:02.348Z,1009.44
2019-06-08T05:56:02.353Z,1009.40
2019-06-08T05:57:02.332Z,1009.40
2019-06-08T05:58:02.337Z,1009.60
2019-06-08T05:59:02.301Z,1009.52
2019-06-08T06:00:08.773Z,1009.48
2019-06-08T06:01:08.312Z,1009.58
2019-06-08T06:02:02.269Z,1009.64
2019-06-08T06:03:02.258Z,1009.48
2019-06-08T06:04:02.246Z,1009.62
2019-06-08T06:05:02.240Z,1009.61
2019-06-08T06:06:02.233Z,1009.62
2019-06-08T06:07:02.222Z,1009.63
2019-06-08T06:08:02.264Z,1009.67
2019-06-08T06:09:02.191Z,1009.59
2019-06-08T06:10:02.194Z,1009.74
2019-06-08T06:11:02.190Z,1009.74
2019-06-08T06:12:07.183Z,1009.75
2019-06-08T06:13:02.152Z,1009.70
2019-06-08T06:14:02.135Z,1009.72
2019-06-08T06:15:02.127Z,1009.75
2019-06-08T06:16:02.160Z,1009.77
2019-06-08T06:17:02.108Z,1009.90
2019-06-08T06:18:02.096Z,1009.78
2019-06-08T06:19:02.080Z,1009.83
2019-06-08T06:20:02.079Z,1009.90
2019-06-08T06:21:10.968Z,1009.86
2019-06-08T06:22:03.045Z,1009.86
2019-06-08T06:23:07.057Z,1009.79
2019-06-08T06:24:02.036Z,1009.84
2019-06-08T06:25:02.022Z,1009.88
2019-06-08T06:26:02.017Z,1009.86
2019-06-08T06:27:02.002Z,1009.92
2019-06-08T06:28:05.952Z,1009.93
2019-06-08T06:29:01.977Z,1009.83
2019-06-08T06:30:02.247Z,1010.00
2019-06-08T06:31:01.994Z,1009.94
2019-06-08T06:32:01.940Z,1009.96
2019-06-08T06:33:01.925Z,1009.92
2019-06-08T06:34:06.942Z,1009.88
2019-06-08T06:35:01.912Z,1009.96
2019-06-08T06:36:01.891Z,1009.91
2019-06-08T06:37:01.888Z,1010.08
2019-06-08T06:38:01.873Z,1009.91
2019-06-08T06:39:01.888Z,1010.03
2019-06-08T06:40:01.877Z,1010.12
2019-06-08T06:41:01.856Z,1010.07
2019-06-08T06:42:01.836Z,1010.08
2019-06-08T06:43:01.819Z,1010.01
2019-06-08T06:44:01.804Z,1010.06
2019-06-08T06:45:06.825Z,1010.09
2019-06-08T06:46:01.784Z,1010.03
2019-06-08T06:47:01.784Z,1010.12
2019-06-08T06:48:01.758Z,1010.16
2019-06-08T06:49:01.744Z,1010.11
2019-06-08T06:50:01.737Z,1010.11
2019-06-08T06:51:01.725Z,1010.17
2019-06-08T06:52:01.729Z,1010.20
2019-06-08T06:53:01.721Z,1010.20
2019-06-08T06:54:01.708Z,1010.22
2019-06-08T06:55:01.691Z,1010.19
2019-06-08T06:56:06.698Z,1010.36
2019-06-08T06:57:01.763Z,1010.35
2019-06-08T06:58:01.653Z,1010.27
2019-06-08T06:59:01.644Z,1010.25
2019-06-08T07:00:01.627Z,1010.27
2019-06-08T07:01:01.612Z,1010.29
2019-06-08T07:02:01.613Z,1010.33
2019-06-08T07:03:01.625Z,1010.33
2019-06-08T07:04:01.578Z,1010.33
2019-06-08T07:05:01.592Z,1010.32
2019-06-08T07:06:01.556Z,1010.36
2019-06-08T07:07:06.615Z,1010.44
2019-06-08T07:08:01.537Z,1010.33
2019-06-08T07:09:01.555Z,1010.31
2019-06-08T07:10:01.512Z,1010.34
2019-06-08T07:11:01.500Z,1010.38
2019-06-08T07:12:01.502Z,1010.27
2019-06-08T07:13:01.484Z,1010.41
2019-06-08T07:14:01.470Z,1010.43
2019-06-08T07:15:01.511Z,1010.40
2019-06-08T07:16:17.273Z,1010.40
2019-06-08T07:17:02.447Z,1010.40
2019-06-08T07:18:06.446Z,1010.49
2019-06-08T07:19:01.418Z,1010.41
2019-06-08T07:20:01.400Z,1010.42
2019-06-08T07:21:01.396Z,1010.40
2019-06-08T07:22:01.390Z,1010.52
2019-06-08T07:23:01.371Z,1010.46
2019-06-08T07:24:01.356Z,1010.43
2019-06-08T07:25:01.359Z,1010.50
2019-06-08T07:26:01.342Z,1010.57
2019-06-08T07:27:01.345Z,1010.46
2019-06-08T07:28:01.313Z,1010.53
2019-06-08T07:29:06.351Z,1010.53
2019-06-08T07:30:01.337Z,1010.49
2019-06-08T07:31:01.286Z,1010.49
2019-06-08T07:32:01.278Z,1010.46
2019-06-08T07:33:01.279Z,1010.44
2019-06-08T07:34:01.244Z,1010.44
2019-06-08T07:35:01.238Z,1010.43
2019-06-08T07:36:01.233Z,1010.53
2019-06-08T07:37:01.215Z,1010.56
2019-06-08T07:38:01.216Z,1010.56
2019-06-08T07:39:01.192Z,1010.52
2019-06-08T07:40:06.204Z,1010.55
2019-06-08T07:41:01.874Z,1010.53
2019-06-08T07:42:01.157Z,1010.48
2019-06-08T07:43:01.168Z,1010.47
2019-06-08T07:44:01.132Z,1010.67
2019-06-08T07:45:01.140Z,1010.58
2019-06-08T07:46:01.109Z,1010.53
2019-06-08T07:47:01.101Z,1010.54
2019-06-08T07:48:01.103Z,1010.55
2019-06-08T07:49:01.078Z,1010.61
2019-06-08T07:50:04.528Z,1010.68
2019-06-08T07:51:06.079Z,1010.72
2019-06-08T07:52:09.817Z,1010.73
2019-06-08T07:53:02.053Z,1010.66
2019-06-08T07:54:01.020Z,1010.82
2019-06-08T07:55:01.027Z,1010.77
2019-06-08T07:56:01.001Z,1010.74
2019-06-08T07:57:00.987Z,1010.81
2019-06-08T07:58:00.987Z,1010.86
2019-06-08T07:59:00.990Z,1010.72
2019-06-08T08:00:08.828Z,1010.77
2019-06-08T08:01:07.615Z,1010.69
2019-06-08T08:02:06.954Z,1010.78
2019-06-08T08:03:00.938Z,1010.89
2019-06-08T08:04:00.910Z,1010.71
2019-06-08T08:05:00.912Z,1010.84
2019-06-08T08:06:00.894Z,1010.77
2019-06-08T08:07:00.880Z,1010.88
2019-06-08T08:08:00.893Z,1010.84
2019-06-08T08:09:00.854Z,1010.76
2019-06-08T08:10:00.848Z,1010.83
2019-06-08T08:11:00.835Z,1010.79
2019-06-08T08:12:00.825Z,1010.74
2019-06-08T08:13:05.844Z,1010.90
2019-06-08T08:14:00.800Z,1010.81
2019-06-08T08:15:00.792Z,1010.76
2019-06-08T08:16:00.865Z,1010.83
2019-06-08T08:17:00.781Z,1010.80
2019-06-08T08:18:00.771Z,1010.78
2019-06-08T08:19:00.746Z,1010.82
2019-06-08T08:20:00.738Z,1010.85
2019-06-08T08:21:09.125Z,1010.77
2019-06-08T08:22:18.705Z,1010.68
2019-06-08T08:23:05.813Z,1010.85
2019-06-08T08:24:07.307Z,1010.87
2019-06-08T08:25:04.627Z,1010.97
2019-06-08T08:26:01.905Z,1010.93
2019-06-08T08:27:03.246Z,1010.84
2019-06-08T08:28:01.147Z,1010.84
2019-06-08T08:29:03.067Z,1010.92
2019-06-08T08:30:02.081Z,1010.92
2019-06-08T08:31:01.864Z,1010.95
2019-06-08T08:32:01.945Z,1010.92
2019-06-08T08:33:02.979Z,1010.83
2019-06-08T08:34:05.737Z,1010.87
2019-06-08T08:35:08.592Z,1011.00
2019-06-08T08:36:01.979Z,1010.85
2019-06-08T08:37:05.946Z,1011.00
2019-06-08T08:38:04.426Z,1010.92
2019-06-08T08:39:02.102Z,1010.92
2019-06-08T08:40:01.512Z,1010.83
2019-06-08T08:41:07.185Z,1010.89
2019-06-08T08:42:04.757Z,1010.85
2019-06-08T08:43:01.700Z,1010.81
2019-06-08T08:44:02.844Z,1010.90
2019-06-08T08:45:05.127Z,1010.91
2019-06-08T08:46:07.705Z,1010.91
2019-06-08T08:47:02.594Z,1010.89
2019-06-08T08:48:21.083Z,1010.88
2019-06-08T08:49:09.493Z,1010.88
2019-06-08T08:50:02.181Z,1010.94
2019-06-08T08:51:03.299Z,1010.87
2019-06-08T08:52:01.726Z,1010.92
2019-06-08T08:53:02.059Z,1010.94
2019-06-08T08:54:03.955Z,1011.07
2019-06-08T08:55:01.911Z,1010.94
2019-06-08T08:56:02.058Z,1010.99
2019-06-08T08:57:08.150Z,1010.92
2019-06-08T08:58:02.041Z,1010.95
2019-06-08T08:59:02.460Z,1010.99
2019-06-08T09:00:04.310Z,1011.08
2019-06-08T09:01:03.470Z,1010.95
2019-06-08T09:02:02.807Z,1011.00
2019-06-08T09:03:21.954Z,1011.02
2019-06-08T09:04:04.816Z,1010.97
2019-06-08T09:05:03.289Z,1011.02
2019-06-08T09:06:03.590Z,1011.03
2019-06-08T09:07:05.522Z,1011.00
2019-06-08T09:08:08.645Z,1011.03
2019-06-08T09:09:03.249Z,1011.04
2019-06-08T09:10:02.320Z,1011.11
2019-06-08T09:11:03.250Z,1011.10
2019-06-08T09:12:03.014Z,1011.14
2019-06-08T09:13:02.942Z,1011.19
2019-06-08T09:14:05.158Z,1011.14
2019-06-08T09:15:03.527Z,1011.20
2019-06-08T09:16:02.334Z,1011.25
2019-06-08T09:17:02.085Z,1011.28
2019-06-08T09:18:03.323Z,1011.20
2019-06-08T09:19:05.116Z,1011.30
2019-06-08T09:20:03.257Z,1011.25
2019-06-08T09:21:02.352Z,1011.35
2019-06-08T09:22:02.742Z,1011.29
2019-06-08T09:23:08.707Z,1011.27
2019-06-08T09:24:03.843Z,1011.25
2019-06-08T09:25:03.178Z,1011.21
2019-06-08T09:26:08.652Z,1011.20
2019-06-08T09:27:04.031Z,1011.20
2019-06-08T09:28:02.881Z,1011.24
2019-06-08T09:29:03.073Z,1011.32
2019-06-08T09:30:05.107Z,1011.29
2019-06-08T09:31:02.220Z,1011.25
2019-06-08T09:32:01.838Z,1011.32
2019-06-08T09:33:01.960Z,1011.22
2019-06-08T09:34:10.491Z,1011.34
2019-06-08T09:35:03.584Z,1011.24
2019-06-08T09:36:02.760Z,1011.12
2019-06-08T09:37:02.747Z,1011.17
2019-06-08T09:38:03.222Z,1011.40
2019-06-08T09:39:03.060Z,1011.26
2019-06-08T09:40:00.864Z,1011.27
2019-06-08T09:41:05.409Z,1011.19
2019-06-08T09:42:02.766Z,1011.20
2019-06-08T09:43:07.428Z,1011.24
2019-06-08T09:44:04.442Z,1011.22
2019-06-08T09:45:03.415Z,1011.24
2019-06-08T09:46:03.006Z,1011.18
2019-06-08T09:47:06.555Z,1011.23
2019-06-08T09:48:03.967Z,1011.22
2019-06-08T09:49:04.804Z,1011.19
2019-06-08T09:50:03.339Z,1011.19
2019-06-08T09:51:01.834Z,1011.24
2019-06-08T09:52:05.263Z,1011.18
2019-06-08T09:53:17.950Z,1011.30
2019-06-08T09:54:03.742Z,1011.25
2019-06-08T09:55:03.946Z,1011.33
2019-06-08T09:56:04.316Z,1011.32
2019-06-08T09:57:02.719Z,1011.35
2019-06-08T09:58:04.991Z,1011.35
2019-06-08T09:59:04.048Z,1011.35
2019-06-08T10:00:02.954Z,1011.31
2019-06-08T10:01:02.852Z,1011.34
2019-06-08T10:02:05.656Z,1011.34
2019-06-08T10:03:08.706Z,1011.35
2019-06-08T10:04:02.396Z,1011.49
2019-06-08T10:05:02.108Z,1011.42
2019-06-08T10:06:05.331Z,1011.32
2019-06-08T10:07:02.313Z,1011.43
2019-06-08T10:08:02.131Z,1011.37
2019-06-08T10:09:00.720Z,1011.35
2019-06-08T10:10:02.558Z,1011.46
2019-06-08T10:11:02.761Z,1011.37
2019-06-08T10:12:01.686Z,1011.35
2019-06-08T10:13:01.769Z,1011.45
2019-06-08T10:14:09.242Z,1011.40
2019-06-08T10:15:00.762Z,1011.37
2019-06-08T10:16:03.115Z,1011.38
2019-06-08T10:17:02.405Z,1011.40
2019-06-08T10:18:00.920Z,1011.33
2019-06-08T10:19:02.281Z,1011.27
2019-06-08T10:20:02.640Z,1011.37
2019-06-08T10:21:01.222Z,1011.23
2019-06-08T10:22:00.828Z,1011.30
2019-06-08T10:23:01.562Z,1011.35
2019-06-08T10:24:01.374Z,1011.48
2019-06-08T10:25:07.866Z,1011.36
2019-06-08T10:26:01.392Z,1011.42
2019-06-08T10:26:59.445Z,1011.30
2019-06-08T10:28:04.112Z,1011.37
2019-06-08T10:29:03.502Z,1011.41
2019-06-08T10:30:02.843Z,1011.41
2019-06-08T10:31:01.171Z,1011.47
2019-06-08T10:31:59.441Z,1011.44
2019-06-08T10:33:01.777Z,1011.35
2019-06-08T10:34:02.143Z,1011.44
2019-06-08T10:35:02.219Z,1011.46
2019-06-08T10:36:06.034Z,1011.72
2019-06-08T10:37:06.437Z,1011.47
2019-06-08T10:38:04.586Z,1011.55
2019-06-08T10:39:03.887Z,1011.81
2019-06-08T10:40:02.588Z,1011.47
2019-06-08T10:41:06.562Z,1011.45
2019-06-08T10:42:03.219Z,1011.54
2019-06-08T10:43:01.395Z,1011.50
2019-06-08T10:43:59.243Z,1011.46
2019-06-08T10:45:02.759Z,1011.46
2019-06-08T10:46:04.943Z,1011.46
2019-06-08T10:47:06.768Z,1011.42
2019-06-08T10:48:00.816Z,1011.43
2019-06-08T10:48:59.639Z,1011.41
2019-06-08T10:50:05.445Z,1011.43
2019-06-08T10:51:02.221Z,1011.52
2019-06-08T10:52:01.658Z,1011.47
2019-06-08T10:53:02.516Z,1011.48
2019-06-08T10:53:59.950Z,1011.45
2019-06-08T10:55:00.996Z,1011.43
2019-06-08T10:55:59.826Z,1011.52
2019-06-08T10:57:00.378Z,1011.41
2019-06-08T10:58:04.499Z,1011.41
2019-06-08T10:59:01.633Z,1011.44
2019-06-08T10:59:59.851Z,1011.48
2019-06-08T11:01:02.252Z,1011.53
2019-06-08T11:02:02.668Z,1011.56
2019-06-08T11:03:02.146Z,1011.52
2019-06-08T11:04:00.292Z,1011.57
2019-06-08T11:05:04.558Z,1011.57
2019-06-08T11:06:01.260Z,1011.48
2019-06-08T11:07:04.341Z,1011.57
2019-06-08T11:08:01.283Z,1011.57
2019-06-08T11:09:07.355Z,1011.53
2019-06-08T11:10:01.843Z,1011.52
2019-06-08T11:11:00.011Z,1011.46
2019-06-08T11:12:00.264Z,1011.45
2019-06-08T11:13:04.536Z,1011.47
2019-06-08T11:14:00.945Z,1011.86
2019-06-08T11:14:59.900Z,1011.81
2019-06-08T11:16:01.061Z,1011.78
2019-06-08T11:16:58.767Z,1011.93
2019-06-08T11:18:02.790Z,1011.41
2019-06-08T11:19:00.981Z,1011.58
2019-06-08T11:20:04.809Z,1011.85
2019-06-08T11:21:00.779Z,1011.53
2019-06-08T11:22:02.859Z,1011.57
2019-06-08T11:23:00.748Z,1011.93
2019-06-08T11:24:10.409Z,1011.84
2019-06-08T11:25:00.742Z,1012.02
2019-06-08T11:26:03.444Z,1011.61
2019-06-08T11:27:00.053Z,1011.72
2019-06-08T11:27:59.839Z,1011.68
2019-06-08T11:28:58.822Z,1012.03
2019-06-08T11:29:59.568Z,1011.62
2019-06-08T11:31:04.004Z,1011.58
2019-06-08T11:31:59.856Z,1011.60
2019-06-08T11:32:59.884Z,1011.63
2019-06-08T11:34:00.160Z,1011.61
2019-06-08T11:34:59.813Z,1011.70
2019-06-08T11:36:02.966Z,1011.60
2019-06-08T11:37:01.202Z,1011.62
2019-06-08T11:38:00.110Z,1011.64
2019-06-08T11:39:00.265Z,1011.62
2019-06-08T11:39:59.744Z,1011.67
2019-06-08T11:41:00.894Z,1011.62
2019-06-08T11:42:00.322Z,1011.73
2019-06-08T11:42:58.995Z,1012.02
2019-06-08T11:44:05.036Z,1011.64
2019-06-08T11:44:58.726Z,1011.63
2019-06-08T11:45:58.571Z,1011.78
2019-06-08T11:46:58.451Z,1011.68
2019-06-08T11:47:58.566Z,1011.71
2019-06-08T11:49:01.132Z,1012.07
2019-06-08T11:50:00.559Z,1012.07
2019-06-08T11:50:58.632Z,1012.04
2019-06-08T11:51:58.489Z,1012.07
2019-06-08T11:53:00.358Z,1012.02
2019-06-08T11:53:59.434Z,1011.69
2019-06-08T11:55:04.142Z,1012.00
2019-06-08T11:55:58.651Z,1012.09
2019-06-08T11:56:58.352Z,1012.01
2019-06-08T11:57:58.632Z,1011.73
2019-06-08T11:58:58.311Z,1012.04
2019-06-08T11:59:58.529Z,1011.98
2019-06-08T12:01:00.777Z,1012.05
2019-06-08T12:01:58.681Z,1012.06
2019-06-08T12:02:58.267Z,1012.10
2019-06-08T12:03:58.256Z,1011.95
2019-06-08T12:04:58.256Z,1012.00